createdAt,value
2018-11-03T00:01:26.644Z,100741.97
2018-11-03T00:03:55.116Z,100742.11
2018-11-03T00:06:23.398Z,100742.31
2018-11-03T00:08:51.652Z,100742.21
2018-11-03T00:11:19.927Z,100742.21
2018-11-03T00:13:48.471Z,100734.69
2018-11-03T00:16:16.698Z,100738.50
2018-11-03T00:18:45.162Z,100739.23
2018-11-03T00:21:13.495Z,100739.27
2018-11-03T00:23:41.783Z,100737.20
2018-11-03T00:26:10.022Z,100740.57
2018-11-03T00:28:38.368Z,100739.27
2018-11-03T00:31:06.768Z,100740.68
2018-11-03T00:33:35.011Z,100735.98
2018-11-03T00:36:03.415Z,100736.92
2018-11-03T00:38:31.616Z,100738.92
2018-11-03T00:41:00.055Z,100736.56
2018-11-03T00:43:28.311Z,100732.65
2018-11-03T00:45:56.836Z,100734.02
2018-11-03T00:48:25.034Z,100736.72
2018-11-03T00:50:53.196Z,100732.72
2018-11-03T00:53:21.667Z,100732.81
2018-11-03T00:55:49.807Z,100726.52
2018-11-03T00:58:18.365Z,100729.81
2018-11-03T01:00:46.772Z,100726.64
2018-11-03T01:03:14.923Z,100728.70
2018-11-03T01:05:43.479Z,100723.78
2018-11-03T01:08:11.719Z,100718.25
2018-11-03T01:10:39.991Z,100719.27
2018-11-03T01:13:08.452Z,100715.20
2018-11-03T01:15:36.974Z,100711.64
2018-11-03T01:18:05.219Z,100712.15
2018-11-03T01:20:33.594Z,100706.12
2018-11-03T01:23:01.779Z,100710.02
2018-11-03T01:25:30.219Z,100708.67
2018-11-03T01:27:58.551Z,100712.42
2018-11-03T01:30:27.017Z,100717.78
2018-11-03T01:32:55.286Z,100710.78
2018-11-03T01:35:23.575Z,100710.02
2018-11-03T01:37:51.847Z,100698.34
2018-11-03T01:40:20.083Z,100703.53
2018-11-03T01:42:48.655Z,100709.77
2018-11-03T01:45:16.763Z,100705.61
2018-11-03T01:47:45.130Z,100705.14
2018-11-03T01:50:14.239Z,100707.94
2018-11-03T01:52:42.709Z,100715.68
2018-11-03T01:55:10.874Z,100715.77
2018-11-03T01:57:39.099Z,100721.62
2018-11-03T02:00:07.902Z,100718.33
2018-11-03T02:02:36.233Z,100719.51
2018-11-03T02:05:04.827Z,100714.41
2018-11-03T02:07:32.976Z,100721.63
2018-11-03T02:10:01.263Z,100726.77
2018-11-03T02:12:29.575Z,100729.92
2018-11-03T02:14:57.794Z,100732.52
2018-11-03T02:17:26.320Z,100728.84
2018-11-03T02:19:54.647Z,100731.42
2018-11-03T02:22:23.016Z,100732.44
2018-11-03T02:24:51.100Z,100735.29
2018-11-03T02:27:19.624Z,100734.92
2018-11-03T02:29:47.851Z,100733.28
2018-11-03T02:32:16.209Z,100734.77
2018-11-03T02:34:44.410Z,100738.98
2018-11-03T02:37:12.876Z,100735.42
2018-11-03T02:39:40.981Z,100738.19
2018-11-03T02:42:09.276Z,100737.25
2018-11-03T02:44:37.533Z,100735.06
2018-11-03T02:47:05.972Z,100739.78
2018-11-03T02:49:34.210Z,100731.42
2018-11-03T02:52:02.319Z,100728.63
2018-11-03T02:54:30.463Z,100730.75
2018-11-03T02:56:58.787Z,100726.62
2018-11-03T02:59:27.232Z,100726.47
2018-11-03T03:01:55.452Z,100731.68
2018-11-03T03:04:23.970Z,100726.08
2018-11-03T03:06:52.092Z,100719.38
2018-11-03T03:09:20.256Z,100722.31
2018-11-03T03:11:48.566Z,100714.02
2018-11-03T03:14:17.015Z,100718.48
2018-11-03T03:16:45.323Z,100719.55
2018-11-03T03:19:13.660Z,100716.83
2018-11-03T03:21:42.055Z,100720.73
2018-11-03T03:24:10.153Z,100715.52
2018-11-03T03:26:38.417Z,100722.86
2018-11-03T03:29:06.886Z,100726.91
2018-11-03T03:31:35.228Z,100720.86
2018-11-03T03:34:03.495Z,100731.01
2018-11-03T03:36:31.983Z,100725.65
2018-11-03T03:39:00.213Z,100721.14
2018-11-03T03:41:28.520Z,100727.93
2018-11-03T03:43:56.804Z,100723.09
2018-11-03T03:46:25.239Z,100721.11
2018-11-03T03:48:53.558Z,100719.73
2018-11-03T03:51:21.969Z,100721.95
2018-11-03T03:53:50.272Z,100709.91
2018-11-03T03:56:18.819Z,100705.66
2018-11-03T03:58:47.051Z,100711.77
2018-11-03T04:01:15.537Z,100712.85
2018-11-03T04:03:43.862Z,100709.55
2018-11-03T04:06:12.096Z,100705.42
2018-11-03T04:08:40.579Z,100705.92
2018-11-03T04:11:08.850Z,100706.47
2018-11-03T04:13:37.306Z,100702.48
2018-11-03T04:16:05.436Z,100706.00
2018-11-03T04:18:33.907Z,100712.91
2018-11-03T04:21:02.108Z,100711.12
2018-11-03T04:23:30.394Z,100710.97
2018-11-03T04:25:58.499Z,100715.91
2018-11-03T04:28:26.961Z,100718.36
2018-11-03T04:30:55.284Z,100710.71
2018-11-03T04:33:23.244Z,100718.77
2018-11-03T04:35:51.015Z,100719.27
2018-11-03T04:38:18.827Z,100716.56
2018-11-03T04:40:46.529Z,100724.23
2018-11-03T04:43:14.214Z,100726.37
2018-11-03T04:45:41.971Z,100728.20
2018-11-03T04:48:10.148Z,100737.08
2018-11-03T04:50:38.364Z,100728.28
2018-11-03T04:53:06.627Z,100728.66
2018-11-03T04:55:34.959Z,100737.34
2018-11-03T04:58:03.187Z,100734.66
2018-11-03T05:00:31.723Z,100728.73
2018-11-03T05:03:00.027Z,100736.73
2018-11-03T05:05:28.410Z,100738.28
2018-11-03T05:07:56.695Z,100729.27
2018-11-03T05:10:24.506Z,100731.02
2018-11-03T05:12:52.822Z,100732.91
2018-11-03T05:15:20.922Z,100733.52
2018-11-03T05:17:49.105Z,100732.50
2018-11-03T05:20:17.541Z,100728.50
2018-11-03T05:22:45.775Z,100728.48
2018-11-03T05:25:14.230Z,100729.88
2018-11-03T05:27:42.524Z,100726.96
2018-11-03T05:30:10.991Z,100731.34
2018-11-03T05:32:39.210Z,100730.03
2018-11-03T05:35:07.367Z,100727.93
2018-11-03T05:37:35.658Z,100734.59
2018-11-03T05:40:04.149Z,100738.72
2018-11-03T05:42:32.344Z,100728.08
2018-11-03T05:45:00.429Z,100735.34
2018-11-03T05:47:28.735Z,100739.75
2018-11-03T05:49:56.998Z,100736.19
2018-11-03T05:52:25.267Z,100733.85
2018-11-03T05:54:53.591Z,100735.52
2018-11-03T05:57:22.024Z,100746.41
2018-11-03T05:59:50.266Z,100745.80
2018-11-03T06:02:19.388Z,100745.75
2018-11-03T06:04:47.172Z,100759.80
2018-11-03T06:07:14.915Z,100757.03
2018-11-03T06:09:43.211Z,100752.44
2018-11-03T06:12:10.959Z,100756.78
2018-11-03T06:14:38.785Z,100752.28
2018-11-03T06:17:06.604Z,100753.98
2018-11-03T06:19:34.352Z,100755.59
2018-11-03T06:22:02.031Z,100752.57
2018-11-03T06:24:29.792Z,100757.28
2018-11-03T06:26:57.539Z,100755.64
2018-11-03T06:29:25.254Z,100759.34
2018-11-03T06:31:52.960Z,100766.00
2018-11-03T06:34:20.702Z,100762.81
2018-11-03T06:36:48.496Z,100767.27
2018-11-03T06:39:16.245Z,100771.76
2018-11-03T06:41:43.962Z,100767.62
2018-11-03T06:44:11.715Z,100776.72
2018-11-03T06:46:39.626Z,100781.52
2018-11-03T06:49:12.872Z,100775.70
2018-11-03T06:51:40.630Z,100780.42
2018-11-03T06:54:08.363Z,100782.67
2018-11-03T06:56:36.144Z,100788.06
2018-11-03T06:59:04.008Z,100792.41
2018-11-03T07:01:31.818Z,100786.03
2018-11-03T07:04:00.163Z,100787.08
2018-11-03T07:06:28.449Z,100779.74
2018-11-03T07:08:56.905Z,100785.72
2018-11-03T07:11:25.484Z,100779.10
2018-11-03T07:13:53.766Z,100774.72
2018-11-03T07:16:22.136Z,100781.81
2018-11-03T07:18:50.634Z,100788.64
2018-11-03T07:21:18.914Z,100788.82
2018-11-03T07:23:47.172Z,100786.02
2018-11-03T07:26:15.503Z,100779.66
2018-11-03T07:28:43.980Z,100782.55
2018-11-03T07:31:12.217Z,100782.72
2018-11-03T07:33:40.783Z,100781.62
2018-11-03T07:36:08.864Z,100780.25
2018-11-03T07:38:37.241Z,100777.70
2018-11-03T07:41:05.909Z,100773.58
2018-11-03T07:43:34.063Z,100771.19
2018-11-03T07:46:02.478Z,100767.77
2018-11-03T07:48:30.805Z,100773.91
2018-11-03T07:50:59.304Z,100771.20
2018-11-03T07:53:27.539Z,100769.92
2018-11-03T07:55:55.782Z,100767.50
2018-11-03T07:58:24.047Z,100762.70
2018-11-03T08:00:52.575Z,100762.11
2018-11-03T08:03:20.786Z,100761.13
2018-11-03T08:05:49.159Z,100768.59
2018-11-03T08:08:17.349Z,100766.02
2018-11-03T08:10:45.852Z,100762.20
2018-11-03T08:13:14.216Z,100774.55
2018-11-03T08:15:42.375Z,100766.11
2018-11-03T08:18:10.675Z,100768.77
2018-11-03T08:20:38.791Z,100774.64
2018-11-03T08:23:07.195Z,100766.02
2018-11-03T08:25:35.290Z,100776.43
2018-11-03T08:28:03.573Z,100771.75
2018-11-03T08:30:32.083Z,100779.06
2018-11-03T08:33:00.325Z,100776.55
2018-11-03T08:35:28.838Z,100773.44
2018-11-03T08:37:57.064Z,100782.23
2018-11-03T08:40:25.538Z,100780.88
2018-11-03T08:42:53.322Z,100779.54
2018-11-03T08:45:21.142Z,100777.41
2018-11-03T08:47:48.827Z,100778.05
2018-11-03T08:50:16.619Z,100783.78
2018-11-03T08:52:45.115Z,100783.78
2018-11-03T08:55:13.786Z,100779.31
2018-11-03T08:57:42.327Z,100771.61
2018-11-03T09:00:12.747Z,100769.93
2018-11-03T09:02:41.227Z,100770.10
2018-11-03T09:05:10.385Z,100768.69
2018-11-03T09:07:38.486Z,100769.02
2018-11-03T09:10:08.358Z,100760.73
2018-11-03T09:12:36.686Z,100765.49
2018-11-03T09:15:05.907Z,100763.66
2018-11-03T09:17:33.975Z,100756.65
2018-11-03T09:20:02.516Z,100752.16
2018-11-03T09:22:30.785Z,100744.98
2018-11-03T09:24:59.111Z,100749.27
2018-11-03T09:27:27.783Z,100747.26
2018-11-03T09:29:55.975Z,100739.38
2018-11-03T09:32:24.257Z,100743.72
2018-11-03T09:34:52.851Z,100736.09
2018-11-03T09:37:21.072Z,100736.09
2018-11-03T09:39:49.411Z,100735.05
2018-11-03T09:42:17.674Z,100719.57
2018-11-03T09:44:46.101Z,100720.89
2018-11-03T09:47:14.384Z,100726.95
2018-11-03T09:49:43.107Z,100724.97
2018-11-03T09:52:11.345Z,100725.30
2018-11-03T09:54:39.800Z,100726.33
2018-11-03T09:57:07.880Z,100723.82
2018-11-03T09:59:36.168Z,100722.94
2018-11-03T10:02:04.392Z,100717.30
2018-11-03T10:04:32.506Z,100717.48
2018-11-03T10:07:00.772Z,100720.44
2018-11-03T10:09:29.067Z,100711.13
2018-11-03T10:11:57.552Z,100711.95
2018-11-03T10:14:25.375Z,100714.30
2018-11-03T10:16:53.176Z,100712.82
2018-11-03T10:19:20.972Z,100700.28
2018-11-03T10:21:48.706Z,100700.61
2018-11-03T10:24:16.421Z,100703.14
2018-11-03T10:26:44.203Z,100702.88
2018-11-03T10:29:11.954Z,100693.97
2018-11-03T10:31:39.674Z,100702.83
2018-11-03T10:34:07.568Z,100702.31
2018-11-03T10:36:35.311Z,100699.92
2018-11-03T10:39:04.131Z,100694.52
2018-11-03T10:41:31.951Z,100684.47
2018-11-03T10:43:59.687Z,100683.02
2018-11-03T10:46:27.604Z,100681.23
2018-11-03T10:48:55.354Z,100673.83
2018-11-03T10:51:24.067Z,100672.89
2018-11-03T10:53:52.252Z,100672.62
2018-11-03T10:56:20.843Z,100667.58
2018-11-03T10:58:49.059Z,100667.63
2018-11-03T11:01:22.367Z,100664.02
2018-11-03T11:05:57.435Z,100648.81
2018-11-03T11:08:31.743Z,100653.48
2018-11-03T11:11:04.902Z,100649.37
2018-11-03T11:13:34.427Z,100639.71
2018-11-03T11:16:02.226Z,100634.55
2018-11-03T11:18:29.956Z,100630.69
2018-11-03T11:20:57.691Z,100626.30
2018-11-03T11:23:25.521Z,100630.09
2018-11-03T11:25:53.203Z,100630.14
2018-11-03T11:28:21.060Z,100642.28
2018-11-03T11:30:48.764Z,100640.87
2018-11-03T11:33:17.304Z,100632.01
2018-11-03T11:35:45.103Z,100627.23
2018-11-03T11:38:13.516Z,100624.63
2018-11-03T11:40:41.598Z,100612.80
2018-11-03T11:43:10.431Z,100609.13
2018-11-03T11:45:38.463Z,100614.86
2018-11-03T11:48:06.261Z,100611.95
2018-11-03T11:50:34.122Z,100605.84
2018-11-03T11:53:01.836Z,100605.95
2018-11-03T11:55:29.587Z,100599.31
2018-11-03T11:57:57.408Z,100602.26
2018-11-03T12:00:25.294Z,100600.23
2018-11-03T12:02:59.775Z,100602.63
2018-11-03T12:05:27.658Z,100599.42
2018-11-03T12:07:55.507Z,100594.47
2018-11-03T12:10:23.306Z,100591.83
2018-11-03T12:12:51.095Z,100591.72
2018-11-03T12:15:18.878Z,100587.31
2018-11-03T12:17:46.705Z,100575.44
2018-11-03T12:20:14.519Z,100576.42
2018-11-03T12:22:42.205Z,100577.94
2018-11-03T12:25:10.931Z,100578.82
2018-11-03T12:27:38.982Z,100577.64
2018-11-03T12:30:09.027Z,100581.98
2018-11-03T12:32:36.948Z,100580.51
2018-11-03T12:35:05.143Z,100575.59
2018-11-03T12:37:32.972Z,100579.13
2018-11-03T12:40:00.764Z,100577.84
2018-11-03T12:42:28.510Z,100572.55
2018-11-03T12:44:56.251Z,100567.60
2018-11-03T12:47:24.106Z,100554.59
2018-11-03T12:49:59.034Z,100562.31
2018-11-03T12:52:27.692Z,100559.16
2018-11-03T12:54:55.507Z,100557.06
2018-11-03T12:57:23.332Z,100554.75
2018-11-03T12:59:51.181Z,100562.92
2018-11-03T13:02:18.906Z,100564.73
2018-11-03T13:04:46.757Z,100560.08
2018-11-03T13:07:14.566Z,100559.17
2018-11-03T13:09:42.473Z,100566.22
2018-11-03T13:12:10.157Z,100560.84
2018-11-03T13:14:37.960Z,100561.94
2018-11-03T13:17:06.079Z,100555.27
2018-11-03T13:19:33.911Z,100558.05
2018-11-03T13:22:01.733Z,100555.52
2018-11-03T13:24:29.452Z,100558.42
2018-11-03T13:26:57.203Z,100563.91
2018-11-03T13:29:24.988Z,100563.20
2018-11-03T13:31:52.779Z,100560.45
2018-11-03T13:34:20.555Z,100563.98
2018-11-03T13:36:49.272Z,100558.84
2018-11-03T13:39:17.021Z,100564.06
2018-11-03T13:41:44.779Z,100574.84
2018-11-03T13:44:12.556Z,100574.06
2018-11-03T13:46:40.347Z,100577.00
2018-11-03T13:49:08.097Z,100577.39
2018-11-03T13:51:35.899Z,100571.88
2018-11-03T13:54:03.671Z,100582.14
2018-11-03T13:56:31.451Z,100586.42
2018-11-03T13:58:59.315Z,100578.08
2018-11-03T14:01:27.098Z,100576.33
2018-11-03T14:03:54.844Z,100584.91
2018-11-03T14:06:22.660Z,100585.41
2018-11-03T14:08:50.388Z,100586.13
2018-11-03T14:11:18.223Z,100587.17
2018-11-03T14:13:45.923Z,100581.25
2018-11-03T14:16:13.727Z,100583.16
2018-11-03T14:18:41.832Z,100578.91
2018-11-03T14:21:10.071Z,100577.23
2018-11-03T14:23:37.899Z,100581.08
2018-11-03T14:26:05.924Z,100581.70
2018-11-03T14:28:33.700Z,100583.29
2018-11-03T14:31:01.415Z,100577.71
2018-11-03T14:33:29.313Z,100577.78
2018-11-03T14:35:57.107Z,100582.72
2018-11-03T14:38:24.867Z,100578.88
2018-11-03T14:40:52.655Z,100579.49
2018-11-03T14:43:20.458Z,100586.79
2018-11-03T14:45:48.238Z,100578.94
2018-11-03T14:48:16.000Z,100582.63
2018-11-03T14:50:43.858Z,100582.53
2018-11-03T14:53:11.564Z,100580.56
2018-11-03T14:55:39.283Z,100591.17
2018-11-03T14:58:07.034Z,100592.53
2018-11-03T15:00:35.808Z,100588.19
2018-11-03T15:03:04.155Z,100591.45
2018-11-03T15:05:31.991Z,100603.25
2018-11-03T15:07:59.750Z,100605.63
2018-11-03T15:10:27.531Z,100606.97
2018-11-03T15:12:55.306Z,100613.53
2018-11-03T15:15:23.027Z,100611.38
2018-11-03T15:17:50.759Z,100619.94
2018-11-03T15:20:18.628Z,100616.51
2018-11-03T15:22:46.524Z,100614.67
2018-11-03T15:25:14.319Z,100615.69
2018-11-03T15:27:42.523Z,100622.06
2018-11-03T15:30:11.503Z,100626.69
2018-11-03T15:32:39.634Z,100629.65
2018-11-03T15:35:08.272Z,100631.48
2018-11-03T15:37:35.983Z,100626.89
2018-11-03T15:40:04.187Z,100628.92
2018-11-03T15:42:32.024Z,100633.68
2018-11-03T15:44:59.812Z,100632.88
2018-11-03T15:47:27.604Z,100633.05
2018-11-03T15:49:55.430Z,100628.88
2018-11-03T15:52:23.375Z,100634.39
2018-11-03T15:54:51.115Z,100630.06
2018-11-03T15:57:18.964Z,100631.13
2018-11-03T15:59:46.859Z,100630.73
2018-11-03T16:02:14.599Z,100638.03
2018-11-03T16:04:42.557Z,100636.70
2018-11-03T16:07:10.287Z,100638.24
2018-11-03T16:09:38.036Z,100633.34
2018-11-03T16:12:06.268Z,100640.34
2018-11-03T16:14:34.051Z,100635.17
2018-11-03T16:17:01.879Z,100633.81
2018-11-03T16:19:29.713Z,100636.91
2018-11-03T16:21:57.455Z,100635.14
2018-11-03T16:24:25.231Z,100637.95
2018-11-03T16:26:53.043Z,100632.20
2018-11-03T16:29:20.824Z,100634.11
2018-11-03T16:31:48.563Z,100634.85
2018-11-03T16:34:16.311Z,100644.63
2018-11-03T16:36:44.054Z,100636.66
2018-11-03T16:39:11.791Z,100636.87
2018-11-03T16:41:39.671Z,100636.30
2018-11-03T16:44:07.463Z,100637.72
2018-11-03T16:46:35.215Z,100638.84
2018-11-03T16:49:02.951Z,100640.00
2018-11-03T16:51:30.724Z,100640.58
2018-11-03T16:53:58.517Z,100648.14
2018-11-03T16:56:26.315Z,100647.13
2018-11-03T16:58:54.067Z,100647.83
2018-11-03T17:01:21.987Z,100648.85
2018-11-03T17:03:49.743Z,100646.92
2018-11-03T17:06:17.522Z,100645.77
2018-11-03T17:08:45.331Z,100650.72
2018-11-03T17:11:13.245Z,100652.78
2018-11-03T17:13:41.255Z,100645.19
2018-11-03T17:16:08.950Z,100651.97
2018-11-03T17:18:36.821Z,100652.03
2018-11-03T17:21:04.657Z,100654.98
2018-11-03T17:23:32.423Z,100650.46
2018-11-03T17:26:00.862Z,100647.53
2018-11-03T17:28:29.089Z,100651.32
2018-11-03T17:30:57.575Z,100647.31
2018-11-03T17:33:26.304Z,100647.58
2018-11-03T17:35:54.849Z,100646.78
2018-11-03T17:38:23.303Z,100645.37
2018-11-03T17:40:51.551Z,100652.46
2018-11-03T17:43:20.047Z,100642.75
2018-11-03T17:45:49.580Z,100652.73
2018-11-03T17:48:18.716Z,100644.16
2018-11-03T17:50:48.185Z,100646.78
2018-11-03T17:53:16.880Z,100651.40
2018-11-03T17:55:44.680Z,100644.39
2018-11-03T17:58:12.891Z,100641.38
2018-11-03T18:00:41.491Z,100634.98
2018-11-03T18:03:09.559Z,100643.80
2018-11-03T18:05:37.971Z,100643.09
2018-11-03T18:08:06.409Z,100638.10
2018-11-03T18:10:34.771Z,100643.61
2018-11-03T18:13:02.991Z,100639.84
2018-11-03T18:15:31.480Z,100646.13
2018-11-03T18:17:59.972Z,100642.77
2018-11-03T18:20:28.236Z,100641.27
2018-11-03T18:22:56.720Z,100644.36
2018-11-03T18:25:24.986Z,100641.51
2018-11-03T18:27:53.719Z,100641.96
2018-11-03T18:30:22.143Z,100639.91
2018-11-03T18:32:51.680Z,100639.59
2018-11-03T18:35:21.006Z,100632.92
2018-11-03T18:37:49.629Z,100639.05
2018-11-03T18:40:18.171Z,100638.74
2018-11-03T18:42:46.355Z,100641.95
2018-11-03T18:45:15.078Z,100644.24
2018-11-03T18:47:43.876Z,100642.08
2018-11-03T18:50:14.157Z,100640.08
2018-11-03T18:52:42.933Z,100651.06
2018-11-03T18:55:12.068Z,100648.44
2018-11-03T18:57:41.639Z,100653.38
2018-11-03T19:00:11.162Z,100654.43
2018-11-03T19:02:40.159Z,100652.31
2018-11-03T19:05:08.671Z,100657.56
2018-11-03T19:07:37.185Z,100665.75
2018-11-03T19:10:06.143Z,100666.98
2018-11-03T19:12:34.282Z,100668.05
2018-11-03T19:15:02.923Z,100664.37
2018-11-03T19:17:31.334Z,100667.42
2018-11-03T19:19:59.314Z,100668.48
2018-11-03T19:22:27.279Z,100667.16
2018-11-03T19:24:55.720Z,100670.56
2018-11-03T19:27:23.917Z,100665.16
2018-11-03T19:29:52.403Z,100668.20
2018-11-03T19:32:20.816Z,100668.20
2018-11-03T19:34:49.073Z,100673.55
2018-11-03T19:37:17.423Z,100667.33
2018-11-03T19:39:45.738Z,100664.67
2018-11-03T19:42:14.227Z,100665.41
2018-11-03T19:44:42.478Z,100664.41
2018-11-03T19:47:11.024Z,100659.19
2018-11-03T19:49:39.255Z,100668.95
2018-11-03T19:52:07.763Z,100669.00
2018-11-03T19:54:36.038Z,100668.84
2018-11-03T19:57:04.296Z,100673.06
2018-11-03T19:59:32.518Z,100673.53
2018-11-03T20:02:00.884Z,100671.06
2018-11-03T20:04:29.104Z,100673.02
2018-11-03T20:06:57.384Z,100677.56
2018-11-03T20:09:25.932Z,100679.27
2018-11-03T20:11:54.120Z,100683.00
2018-11-03T20:14:22.223Z,100681.55
2018-11-03T20:16:50.125Z,100679.18
2018-11-03T20:19:17.855Z,100686.64
2018-11-03T20:21:46.013Z,100681.59
2018-11-03T20:24:14.280Z,100688.02
2018-11-03T20:26:42.563Z,100694.39
2018-11-03T20:29:11.116Z,100685.28
2018-11-03T20:31:39.337Z,100678.84
2018-11-03T20:34:07.636Z,100686.30
2018-11-03T20:36:36.137Z,100680.59
2018-11-03T20:39:06.028Z,100684.31
2018-11-03T20:41:34.169Z,100688.41
2018-11-03T20:44:02.329Z,100690.77
2018-11-03T20:46:30.626Z,100687.94
2018-11-03T20:48:59.210Z,100684.03
2018-11-03T20:51:27.389Z,100684.02
2018-11-03T20:53:55.944Z,100682.64
2018-11-03T20:56:24.092Z,100681.09
2018-11-03T20:58:52.203Z,100683.31
2018-11-03T21:01:20.512Z,100684.50
2018-11-03T21:03:48.775Z,100680.31
2018-11-03T21:06:17.025Z,100684.19
2018-11-03T21:08:45.317Z,100679.81
2018-11-03T21:11:13.751Z,100681.52
2018-11-03T21:13:42.043Z,100679.52
2018-11-03T21:16:10.608Z,100683.40
2018-11-03T21:18:38.854Z,100682.91
2018-11-03T21:21:07.293Z,100682.39
2018-11-03T21:23:35.669Z,100682.58
2018-11-03T21:26:04.096Z,100685.46
2018-11-03T21:28:32.859Z,100682.77
2018-11-03T21:31:01.048Z,100685.94
2018-11-03T21:33:29.463Z,100688.98
2018-11-03T21:35:57.539Z,100685.47
2018-11-03T21:38:25.486Z,100688.49
2018-11-03T21:40:53.903Z,100683.46
2018-11-03T21:43:21.952Z,100678.19
2018-11-03T21:45:50.111Z,100679.06
2018-11-03T21:48:18.576Z,100672.98
2018-11-03T21:50:46.983Z,100670.97
2018-11-03T21:53:15.124Z,100672.49
2018-11-03T21:55:43.190Z,100665.42
2018-11-03T21:58:11.638Z,100663.22
2018-11-03T22:00:39.948Z,100665.89
2018-11-03T22:03:08.398Z,100664.06
2018-11-03T22:05:36.639Z,100671.30
2018-11-03T22:08:04.609Z,100664.20
2018-11-03T22:10:32.840Z,100664.71
2018-11-03T22:13:01.103Z,100665.06
2018-11-03T22:15:29.444Z,100665.89
2018-11-03T22:17:57.647Z,100667.42
2018-11-03T22:20:25.944Z,100664.86
2018-11-03T22:22:54.210Z,100664.86
2018-11-03T22:25:22.477Z,100656.95
2018-11-03T22:27:50.953Z,100661.17
2018-11-03T22:30:19.226Z,100669.94
2018-11-03T22:32:47.807Z,100668.41
2018-11-03T22:35:16.019Z,100662.49
2018-11-03T22:37:44.563Z,100661.17
2018-11-03T22:40:12.776Z,100662.52
2018-11-03T22:42:41.115Z,100654.61
2018-11-03T22:45:09.350Z,100651.06
2018-11-03T22:47:37.667Z,100652.91
2018-11-03T22:50:05.644Z,100643.48
2018-11-03T22:52:34.005Z,100646.34
2018-11-03T22:55:02.387Z,100645.83
2018-11-03T22:57:30.664Z,100646.33
2018-11-03T22:59:58.975Z,100642.62
2018-11-03T23:02:27.463Z,100641.45
2018-11-03T23:04:55.659Z,100636.06
2018-11-03T23:07:23.487Z,100633.87
2018-11-03T23:09:51.236Z,100634.19
2018-11-03T23:12:19.560Z,100634.55
2018-11-03T23:14:48.047Z,100625.61
2018-11-03T23:17:16.270Z,100625.61
2018-11-03T23:19:44.740Z,100624.09
2018-11-03T23:22:13.173Z,100625.08
2018-11-03T23:24:41.451Z,100622.70
2018-11-03T23:27:09.580Z,100625.38
2018-11-03T23:29:37.784Z,100623.70
2018-11-03T23:32:05.629Z,100627.22
2018-11-03T23:34:33.768Z,100626.04
2018-11-03T23:37:02.046Z,100617.45
2018-11-03T23:39:30.579Z,100623.34
2018-11-03T23:41:58.824Z,100621.33
2018-11-03T23:44:27.192Z,100616.98
2018-11-03T23:46:55.583Z,100617.11
2018-11-03T23:49:24.045Z,100614.77
2018-11-03T23:51:52.358Z,100617.95
2018-11-03T23:54:20.627Z,100613.05
2018-11-03T23:56:49.114Z,100611.34
2018-11-03T23:59:17.668Z,100607.50
